Strongs, Michigan
Current Conditions -  °F | °C
As of 6:34 AM on Saturday 25 Oct 2014 (Local Time) from KERY Reporting Station
Clear Clear  
Wind Chill:   Ceiling: Unl
Heat Index: 10°   Visibility: 10mi
Dew Point:   Wind: 12mph
Humidity: 92%   Direction: 250°WSW
Pressure: 29.65"   Gusts: 21mph
Location:  46.36°N, 84.97°W
Report Text: KERY 251034Z AUTO 25010G18KT 10SM CLR 10/09 A2965 RMK AO2 T00990086
Loading
Personal Weather Stations






























Interactive Weather Map
Tropical Storm Tracking
New forecast layout! Learn more

10-Day Weather Forecast

Advertisements
Track Severe Weather on mobile